TimeEDT,TemperatureF,Dew PointF,Humidity,Sea Level PressureIn,VisibilityMPH,Wind Direction,Wind SpeedMPH,Gust SpeedMPH,PrecipitationIn,Events,Conditions,WindDirDegrees,DateUTC
12:54 AM,53.1,48.9,86,29.94,10.0,Calm,Calm,-,N/A,,Overcast,0,2013-09-26 04:54:00
1:54 AM,54.0,48.0,80,29.95,10.0,Calm,Calm,-,N/A,,Overcast,0,2013-09-26 05:54:00
2:52 AM,50.0,48.2,94,29.99,10.0,Calm,Calm,-,N/A,,Mostly Cloudy,0,2013-09-26 06:52:00
2:54 AM,50.0,48.0,93,29.95,10.0,Calm,Calm,-,N/A,,Mostly Cloudy,0,2013-09-26 06:54:00
3:54 AM,50.0,48.9,96,29.95,10.0,Calm,Calm,-,0.00,,Overcast,0,2013-09-26 07:54:00
4:54 AM,52.0,48.0,86,29.96,10.0,Calm,Calm,-,N/A,,Overcast,0,2013-09-26 08:54:00
5:44 AM,48.2,46.4,93,30.00,8.0,Calm,Calm,-,N/A,,Scattered Clouds,0,2013-09-26 09:44:00
5:54 AM,46.9,45.0,93,29.97,10.0,Calm,Calm,-,N/A,,Clear,0,2013-09-26 09:54:00
6:17 AM,48.2,46.4,93,30.01,10.0,Calm,Calm,-,N/A,,Mostly Cloudy,0,2013-09-26 10:17:00
6:54 AM,48.9,46.9,93,29.99,10.0,Calm,Calm,-,N/A,,Overcast,0,2013-09-26 10:54:00
7:26 AM,48.2,44.6,87,30.02,10.0,Calm,Calm,-,N/A,,Scattered Clouds,0,2013-09-26 11:26:00
7:37 AM,48.2,46.4,93,30.03,9.0,Calm,Calm,-,N/A,,Mostly Cloudy,0,2013-09-26 11:37:00
7:54 AM,50.0,48.0,93,30.01,10.0,Calm,Calm,-,0.00,,Overcast,0,2013-09-26 11:54:00
8:54 AM,52.0,48.0,86,30.02,10.0,NNE,3.5,-,0.00,,Overcast,20,2013-09-26 12:54:00
9:54 AM,54.0,46.9,77,30.03,10.0,NE,4.6,-,N/A,,Overcast,50,2013-09-26 13:54:00
10:54 AM,59.0,46.0,62,30.02,10.0,Variable,4.6,-,N/A,,Overcast,0,2013-09-26 14:54:00
11:54 AM,60.1,46.9,62,30.01,10.0,NNW,9.2,-,N/A,,Mostly Cloudy,340,2013-09-26 15:54:00
12:10 PM,60.8,46.4,59,30.05,10.0,Variable,5.8,-,N/A,,Scattered Clouds,0,2013-09-26 16:10:00
12:54 PM,60.1,46.9,62,30.01,10.0,WSW,5.8,-,N/A,,Scattered Clouds,250,2013-09-26 16:54:00
1:54 PM,60.1,46.0,60,30.00,10.0,WNW,6.9,-,N/A,,Scattered Clouds,290,2013-09-26 17:54:00
2:54 PM,62.1,46.9,58,30.00,10.0,Variable,4.6,-,N/A,,Partly Cloudy,0,2013-09-26 18:54:00
3:54 PM,63.0,48.0,58,29.99,10.0,WNW,8.1,-,N/A,,Overcast,290,2013-09-26 19:54:00
4:54 PM,61.0,46.9,60,30.00,10.0,West,5.8,-,N/A,,Partly Cloudy,270,2013-09-26 20:54:00
5:54 PM,59.0,48.0,67,30.03,10.0,WNW,5.8,-,N/A,,Overcast,290,2013-09-26 21:54:00
6:54 PM,57.0,46.9,69,30.04,10.0,Calm,Calm,-,N/A,,Overcast,0,2013-09-26 22:54:00
7:54 PM,52.0,48.9,89,30.07,10.0,Calm,Calm,-,N/A,,Partly Cloudy,0,2013-09-26 23:54:00
8:54 PM,50.0,45.0,83,30.09,10.0,Calm,Calm,-,N/A,,Clear,0,2013-09-27 00:54:00
9:54 PM,48.0,45.0,89,30.10,10.0,Calm,Calm,-,N/A,,Scattered Clouds,0,2013-09-27 01:54:00
10:54 PM,46.9,44.1,90,30.10,10.0,Calm,Calm,-,N/A,,Clear,0,2013-09-27 02:54:00
11:54 PM,46.0,44.1,93,30.11,3.0,Calm,Calm,-,N/A,,Clear,0,2013-09-27 03:54:00